createdAt,value
2018-09-13T00:03:13.574Z,7.97
2018-09-13T00:09:17.204Z,8.00
2018-09-13T00:15:20.659Z,9.37
2018-09-13T00:21:24.131Z,10.17
2018-09-13T00:27:27.602Z,9.67
2018-09-13T00:33:31.169Z,10.60
2018-09-13T00:39:34.916Z,11.83
2018-09-13T00:45:39.550Z,12.37
2018-09-13T00:51:42.997Z,13.10
2018-09-13T00:57:46.526Z,14.40
2018-09-13T01:03:50.285Z,15.47
2018-09-13T01:09:54.026Z,16.33
2018-09-13T01:15:57.401Z,15.87
2018-09-13T01:22:00.719Z,16.83
2018-09-13T01:28:04.286Z,15.47
2018-09-13T01:34:07.979Z,14.17
2018-09-13T01:40:11.778Z,16.73
2018-09-13T01:46:15.513Z,18.77
2018-09-13T01:52:19.079Z,19.13
2018-09-13T01:58:22.703Z,18.70
2018-09-13T02:04:26.667Z,21.63
2018-09-13T02:10:30.354Z,17.77
2018-09-13T02:16:33.793Z,16.77
2018-09-13T02:22:37.443Z,17.13
2018-09-13T02:28:41.114Z,20.20
2018-09-13T02:34:46.122Z,19.57
2018-09-13T02:40:49.797Z,20.13
2018-09-13T02:46:53.750Z,19.80
2018-09-13T02:52:57.601Z,21.03
2018-09-13T02:59:01.543Z,20.20
2018-09-13T03:05:06.050Z,20.87
2018-09-13T03:11:10.439Z,19.57
2018-09-13T03:17:14.058Z,21.77
2018-09-13T03:23:17.790Z,19.93
2018-09-13T03:29:22.659Z,19.10
2018-09-13T03:35:26.666Z,20.93
2018-09-13T03:41:31.107Z,20.37
2018-09-13T03:47:35.541Z,20.80
2018-09-13T03:53:38.901Z,20.57
2018-09-13T03:59:42.391Z,22.73
2018-09-13T04:05:50.360Z,22.70
2018-09-13T04:11:56.946Z,22.13
2018-09-13T04:18:00.615Z,22.27
2018-09-13T04:24:04.417Z,21.57
2018-09-13T04:30:08.099Z,20.47
2018-09-13T04:36:12.015Z,20.80
2018-09-13T04:42:16.262Z,20.57
2018-09-13T04:48:19.942Z,20.00
2018-09-13T04:54:23.253Z,19.23
2018-09-13T05:00:27.235Z,20.97
2018-09-13T05:06:30.788Z,19.53
2018-09-13T05:12:34.673Z,18.00
2018-09-13T05:18:38.489Z,22.60
2018-09-13T05:24:42.590Z,23.93
2018-09-13T05:30:46.134Z,21.67
2018-09-13T05:36:50.056Z,21.33
2018-09-13T05:42:54.005Z,25.53
2018-09-13T05:48:57.734Z,23.43
2018-09-13T05:55:01.578Z,24.63
2018-09-13T06:01:05.624Z,22.47
2018-09-13T06:07:09.461Z,23.17
2018-09-13T06:13:13.333Z,22.27
2018-09-13T06:19:17.221Z,21.77
2018-09-13T06:25:20.932Z,21.90
2018-09-13T06:31:25.670Z,18.67
2018-09-13T06:37:29.296Z,17.57
2018-09-13T06:43:33.131Z,18.57
2018-09-13T06:49:38.410Z,19.10
2018-09-13T06:55:41.965Z,19.07
2018-09-13T07:01:46.155Z,19.13
2018-09-13T07:07:49.877Z,19.40
2018-09-13T07:13:56.297Z,23.03
2018-09-13T07:20:00.089Z,18.77
2018-09-13T07:26:03.519Z,17.50
2018-09-13T07:32:07.488Z,16.70
2018-09-13T07:38:11.239Z,17.03
2018-09-13T07:44:15.929Z,16.57
2018-09-13T07:50:20.362Z,15.63
2018-09-13T07:56:24.049Z,16.70
2018-09-13T08:02:27.462Z,18.23
2018-09-13T08:08:31.188Z,17.37
2018-09-13T08:14:36.321Z,17.93
2018-09-13T08:20:39.718Z,15.83
2018-09-13T08:26:43.330Z,15.77
2018-09-13T08:32:47.078Z,18.07
2018-09-13T08:38:54.144Z,18.20
2018-09-13T08:44:57.966Z,17.67
2018-09-13T08:51:01.675Z,17.03
2018-09-13T08:57:05.135Z,14.20
2018-09-13T09:03:08.641Z,12.73
2018-09-13T09:09:12.566Z,15.17
2018-09-13T09:15:16.492Z,13.60
2018-09-13T09:21:19.919Z,10.87
2018-09-13T09:27:23.791Z,8.50
2018-09-13T09:33:27.505Z,7.13
2018-09-13T09:39:32.206Z,6.80
2018-09-13T09:45:35.857Z,8.17
2018-09-13T09:51:40.268Z,8.63
2018-09-13T09:57:44.093Z,10.30
2018-09-13T10:03:52.184Z,12.43
2018-09-13T10:09:57.122Z,9.93
2018-09-13T10:16:06.455Z,18.87
2018-09-13T10:22:15.679Z,23.63
2018-09-13T10:28:24.980Z,26.37
2018-09-13T10:34:34.158Z,19.13
2018-09-13T10:40:43.268Z,20.63
2018-09-13T10:46:51.467Z,25.33
2018-09-13T10:53:58.941Z,32.90
2018-09-13T11:00:02.894Z,31.00
2018-09-13T11:06:07.346Z,39.60
2018-09-13T11:12:12.357Z,37.33
2018-09-13T11:18:16.293Z,41.00
2018-09-13T11:24:19.673Z,32.20
2018-09-13T11:30:24.566Z,28.77
2018-09-13T11:36:28.382Z,20.63
2018-09-13T11:42:31.872Z,20.93
2018-09-13T11:48:35.228Z,22.53
2018-09-13T11:54:38.789Z,23.83
2018-09-13T12:00:42.510Z,28.40
2018-09-13T12:06:46.537Z,25.00
2018-09-13T12:12:50.054Z,20.23
2018-09-13T12:18:53.479Z,18.60
2018-09-13T12:24:56.865Z,16.30
2018-09-13T12:31:00.400Z,15.27
2018-09-13T12:37:04.275Z,17.07
2018-09-13T12:43:07.911Z,18.67
2018-09-13T12:49:12.187Z,17.67
2018-09-13T12:55:15.602Z,19.27
2018-09-13T13:01:19.176Z,15.90
2018-09-13T13:07:22.847Z,14.83
2018-09-13T13:13:26.292Z,14.70
2018-09-13T13:19:29.834Z,14.50
2018-09-13T13:25:33.298Z,13.57
2018-09-13T13:31:36.671Z,12.30
2018-09-13T13:37:40.640Z,11.57
2018-09-13T13:43:44.229Z,12.70
2018-09-13T13:49:47.969Z,5.53
2018-09-13T13:55:51.330Z,6.77
2018-09-13T14:01:54.899Z,8.33
2018-09-13T14:07:58.457Z,10.10
2018-09-13T14:14:01.912Z,11.37
2018-09-13T14:20:05.493Z,10.27
2018-09-13T14:26:09.090Z,10.37
2018-09-13T14:32:13.158Z,11.50
2018-09-13T14:38:17.135Z,9.73
2018-09-13T14:44:20.825Z,8.77
2018-09-13T14:50:24.297Z,8.20
2018-09-13T14:56:28.458Z,8.00
2018-09-13T15:02:31.822Z,8.73
2018-09-13T15:08:35.183Z,8.43
2018-09-13T15:14:39.007Z,10.50
2018-09-13T15:20:42.671Z,10.70
2018-09-13T15:26:46.290Z,8.93
2018-09-13T15:32:49.801Z,8.23
2018-09-13T15:38:53.607Z,9.17
2018-09-13T15:44:57.062Z,8.43
2018-09-13T15:51:00.564Z,7.90
2018-09-13T15:57:07.353Z,9.27
2018-09-13T16:03:10.898Z,8.93
2018-09-13T16:09:14.770Z,8.57
2018-09-13T16:15:18.719Z,7.50
2018-09-13T16:21:23.723Z,6.17
2018-09-13T16:27:28.156Z,6.57
2018-09-13T16:33:31.786Z,5.80
2018-09-13T16:39:41.169Z,9.17
2018-09-13T16:45:44.997Z,5.37
2018-09-13T16:51:48.911Z,7.10
2018-09-13T16:57:53.313Z,6.20
2018-09-13T17:03:57.477Z,6.90
2018-09-13T17:10:02.570Z,5.60
2018-09-13T17:16:08.408Z,12.90
2018-09-13T17:22:14.183Z,7.40
2018-09-13T17:28:18.976Z,7.37
2018-09-13T17:34:27.639Z,5.67
2018-09-13T17:40:33.689Z,5.57
2018-09-13T17:46:40.035Z,7.17
2018-09-13T17:52:45.016Z,6.40
2018-09-13T18:05:02.593Z,7.70
2018-09-13T18:11:06.769Z,7.90
2018-09-13T18:17:11.297Z,8.30
2018-09-13T18:23:15.875Z,7.80
2018-09-13T18:29:20.581Z,8.20
2018-09-13T18:35:24.954Z,8.70
2018-09-13T18:41:28.802Z,9.33
2018-09-13T18:47:32.698Z,8.70
2018-09-13T18:53:37.073Z,11.50
2018-09-13T18:59:41.210Z,9.17
2018-09-13T19:05:45.099Z,9.93
2018-09-13T19:11:49.583Z,10.23
2018-09-13T19:17:53.717Z,10.20
2018-09-13T19:23:57.838Z,10.83
2018-09-13T19:30:02.029Z,11.00
2018-09-13T19:36:06.577Z,13.50
2018-09-13T19:42:11.937Z,11.03
2018-09-13T19:48:15.922Z,11.50
2018-09-13T19:54:22.897Z,11.17
2018-09-13T20:00:28.755Z,11.70
2018-09-13T20:06:35.159Z,12.53
2018-09-13T20:12:40.816Z,13.40
2018-09-13T20:18:50.955Z,12.77
2018-09-13T20:24:55.967Z,14.03
2018-09-13T20:30:59.783Z,13.90
2018-09-13T20:37:03.306Z,13.53
2018-09-13T20:43:07.108Z,14.67
2018-09-13T20:49:11.422Z,13.60
2018-09-13T20:55:15.154Z,13.93
2018-09-13T21:01:19.228Z,14.43
2018-09-13T21:07:23.019Z,13.67
2018-09-13T21:13:26.903Z,14.63
2018-09-13T21:19:30.710Z,14.20
2018-09-13T21:25:34.271Z,16.17
2018-09-13T21:31:38.353Z,15.37
2018-09-13T21:37:42.879Z,15.80
2018-09-13T21:43:46.589Z,14.63
2018-09-13T21:49:50.273Z,14.37
2018-09-13T21:55:54.005Z,15.37
2018-09-13T22:01:57.591Z,15.73
2018-09-13T22:08:01.085Z,15.97
2018-09-13T22:14:05.186Z,16.67
2018-09-13T22:20:08.837Z,17.33
2018-09-13T22:26:12.528Z,16.77
2018-09-13T22:32:17.074Z,15.30
2018-09-13T22:38:20.639Z,16.10
2018-09-13T22:44:24.033Z,15.70
2018-09-13T22:50:27.890Z,13.20
2018-09-13T22:56:31.502Z,14.27
2018-09-13T23:02:40.698Z,14.33
2018-09-13T23:08:44.422Z,13.80
2018-09-13T23:14:47.866Z,14.33
2018-09-13T23:20:51.669Z,12.97
2018-09-13T23:26:55.769Z,13.57
2018-09-13T23:32:59.495Z,13.33
2018-09-13T23:39:05.019Z,11.47
2018-09-13T23:45:08.814Z,11.23
2018-09-13T23:51:12.390Z,11.37
2018-09-13T23:57:15.938Z,12.13
